createdAt,value
2022-07-27T00:04:51.822Z,977.44
2022-07-27T00:16:52.254Z,977.45
2022-07-27T00:28:52.680Z,977.48
2022-07-27T00:40:53.127Z,977.30
2022-07-27T00:52:53.559Z,977.29
2022-07-27T01:04:57.051Z,977.38
2022-07-27T01:16:54.454Z,977.31
2022-07-27T01:28:54.926Z,977.24
2022-07-27T01:40:55.413Z,977.20
2022-07-27T01:52:55.833Z,977.16
2022-07-27T02:04:56.357Z,976.85
2022-07-27T02:16:56.765Z,976.95
2022-07-27T02:28:57.244Z,976.94
2022-07-27T02:40:57.662Z,976.93
2022-07-27T02:52:58.134Z,976.88
2022-07-27T03:04:58.570Z,977.06
2022-07-27T03:16:59.050Z,976.94
2022-07-27T03:28:59.501Z,976.93
2022-07-27T03:40:59.913Z,976.88
2022-07-27T03:53:00.355Z,976.95
2022-07-27T04:05:00.853Z,976.94
2022-07-27T04:17:01.417Z,976.97
2022-07-27T04:29:01.764Z,976.96
2022-07-27T04:41:02.223Z,977.01
2022-07-27T04:53:02.694Z,976.95
2022-07-27T05:05:03.122Z,977.01
2022-07-27T05:17:05.109Z,977.14
2022-07-27T05:29:04.005Z,977.08
2022-07-27T05:41:04.527Z,977.33
2022-07-27T05:53:04.938Z,977.30
2022-07-27T06:05:05.384Z,977.34
2022-07-27T06:17:05.859Z,977.40
2022-07-27T06:29:09.940Z,977.48
2022-07-27T06:41:06.766Z,977.47
2022-07-27T06:53:07.208Z,977.53
2022-07-27T07:05:07.649Z,977.49
2022-07-27T07:17:08.118Z,977.38
2022-07-27T07:29:08.778Z,977.33
2022-07-27T07:41:09.052Z,977.27
2022-07-27T07:53:09.527Z,977.19
2022-07-27T08:05:09.955Z,977.30
2022-07-27T08:17:10.365Z,977.27
2022-07-27T08:29:13.815Z,977.27
2022-07-27T08:41:11.328Z,977.33
2022-07-27T08:53:11.793Z,977.25
2022-07-27T09:05:12.230Z,977.29
2022-07-27T09:17:47.185Z,977.20
2022-07-27T09:29:13.354Z,977.39
2022-07-27T09:41:13.613Z,977.44
2022-07-27T09:53:41.528Z,977.30
2022-07-27T10:05:14.602Z,977.10
2022-07-27T10:17:14.960Z,977.08
2022-07-27T10:29:15.428Z,976.90
2022-07-27T10:41:15.888Z,976.82
2022-07-27T10:53:16.324Z,976.75
2022-07-27T11:17:50.823Z,976.61
2022-07-27T11:29:17.702Z,976.59
2022-07-27T11:41:29.192Z,976.66
2022-07-27T11:53:18.623Z,976.66
2022-07-27T12:05:19.308Z,976.76
2022-07-27T12:17:19.651Z,976.72
2022-07-27T12:29:19.991Z,976.73
2022-07-27T12:41:20.445Z,976.81
2022-07-27T12:53:20.927Z,976.95
2022-07-27T13:09:12.626Z,977.05
2022-07-27T13:21:12.725Z,977.16
2022-07-27T13:33:13.151Z,977.20
2022-07-27T13:45:13.624Z,977.15
2022-07-27T13:57:14.097Z,977.01
2022-07-27T14:09:17.736Z,977.09
2022-07-27T14:21:15.044Z,977.18
2022-07-27T14:33:15.455Z,977.31
2022-07-27T14:45:15.888Z,977.36
2022-07-27T14:57:17.413Z,977.16
2022-07-27T15:09:17.256Z,977.13
2022-07-27T15:21:17.286Z,977.17
2022-07-27T15:33:17.725Z,977.15
2022-07-27T15:45:18.201Z,976.94
2022-07-27T15:57:18.650Z,977.02
2022-07-27T16:09:19.083Z,976.92
2022-07-27T16:21:19.519Z,976.95
2022-07-27T16:33:20.009Z,976.95
2022-07-27T16:45:20.476Z,976.99
2022-07-27T16:57:20.866Z,976.89
2022-07-27T17:09:21.373Z,977.12
2022-07-27T17:21:21.806Z,977.00
2022-07-27T17:33:22.288Z,977.28
2022-07-27T17:45:22.736Z,977.29
2022-07-27T17:57:23.181Z,977.34
2022-07-27T18:09:23.640Z,977.43
2022-07-27T18:21:24.119Z,977.47
2022-07-27T18:33:24.576Z,977.44
2022-07-27T18:45:34.471Z,977.41
2022-07-27T18:57:25.411Z,977.44
2022-07-27T19:09:25.963Z,977.66
2022-07-27T19:21:26.379Z,977.90
2022-07-27T19:33:26.814Z,977.94
2022-07-27T19:45:27.877Z,977.95
2022-07-27T19:57:27.763Z,978.00
2022-07-27T20:09:28.189Z,978.03
2022-07-27T20:21:28.651Z,978.41
2022-07-27T20:33:32.809Z,978.22
2022-07-27T20:45:29.592Z,978.30
2022-07-27T20:57:30.010Z,978.42
2022-07-27T21:09:30.447Z,978.49
2022-07-27T21:21:30.908Z,978.69
2022-07-27T21:33:33.777Z,978.86
2022-07-27T21:45:31.871Z,978.90
2022-07-27T21:57:32.254Z,978.75
2022-07-27T22:09:32.715Z,978.87
2022-07-27T22:21:33.185Z,978.85
2022-07-27T22:33:33.594Z,979.04
2022-07-27T22:45:34.131Z,979.11
2022-07-27T22:57:34.528Z,979.16
2022-07-27T23:09:35.036Z,979.23
2022-07-27T23:21:35.457Z,979.23
2022-07-27T23:33:35.918Z,979.09
2022-07-27T23:45:36.363Z,979.25
2022-07-27T23:57:36.840Z,979.24
